sensor_id;sensor_type;location;lat;lon;timestamp;P1;durP1;ratioP1;P2;durP2;ratioP2
25583;SDS011;13463;51.526;9.928;2024-03-02T00:01:46;45.65;;;26.52;;
25583;SDS011;13463;51.526;9.928;2024-03-02T00:04:12;49.08;;;26.58;;
25583;SDS011;13463;51.526;9.928;2024-03-02T00:06:39;49.65;;;27.90;;
25583;SDS011;13463;51.526;9.928;2024-03-02T00:09:05;40.28;;;25.42;;
25583;SDS011;13463;51.526;9.928;2024-03-02T00:11:36;43.00;;;26.80;;
25583;SDS011;13463;51.526;9.928;2024-03-02T00:14:03;50.95;;;26.05;;
25583;SDS011;13463;51.526;9.928;2024-03-02T00:16:30;48.05;;;26.60;;
25583;SDS011;13463;51.526;9.928;2024-03-02T00:19:05;48.97;;;26.92;;
25583;SDS011;13463;51.526;9.928;2024-03-02T00:21:32;47.60;;;27.55;;
25583;SDS011;13463;51.526;9.928;2024-03-02T00:23:59;48.45;;;27.13;;
25583;SDS011;13463;51.526;9.928;2024-03-02T00:26:26;48.80;;;26.85;;
25583;SDS011;13463;51.526;9.928;2024-03-02T00:28:54;51.25;;;26.92;;
25583;SDS011;13463;51.526;9.928;2024-03-02T00:31:23;47.95;;;27.30;;
25583;SDS011;13463;51.526;9.928;2024-03-02T00:33:50;52.10;;;27.92;;
25583;SDS011;13463;51.526;9.928;2024-03-02T00:36:26;48.53;;;27.15;;
25583;SDS011;13463;51.526;9.928;2024-03-02T00:38:54;47.65;;;28.15;;
25583;SDS011;13463;51.526;9.928;2024-03-02T00:41:21;47.50;;;26.17;;
25583;SDS011;13463;51.526;9.928;2024-03-02T00:43:56;51.05;;;25.98;;
25583;SDS011;13463;51.526;9.928;2024-03-02T00:46:24;50.53;;;27.50;;
25583;SDS011;13463;51.526;9.928;2024-03-02T00:48:55;48.13;;;24.90;;
25583;SDS011;13463;51.526;9.928;2024-03-02T00:51:24;47.15;;;26.60;;
25583;SDS011;13463;51.526;9.928;2024-03-02T00:53:52;50.30;;;26.17;;
25583;SDS011;13463;51.526;9.928;2024-03-02T00:56:23;47.15;;;26.08;;
25583;SDS011;13463;51.526;9.928;2024-03-02T00:58:50;49.70;;;27.98;;
25583;SDS011;13463;51.526;9.928;2024-03-02T01:01:19;47.83;;;27.15;;
25583;SDS011;13463;51.526;9.928;2024-03-02T01:06:16;56.22;;;29.70;;
25583;SDS011;13463;51.526;9.928;2024-03-02T01:08:43;50.05;;;28.75;;
25583;SDS011;13463;51.526;9.928;2024-03-02T01:11:10;46.85;;;26.83;;
25583;SDS011;13463;51.526;9.928;2024-03-02T01:13:37;52.50;;;28.50;;
25583;SDS011;13463;51.526;9.928;2024-03-02T01:16:04;50.42;;;28.38;;
25583;SDS011;13463;51.526;9.928;2024-03-02T01:18:31;49.22;;;28.65;;
25583;SDS011;13463;51.526;9.928;2024-03-02T01:20:57;50.65;;;27.67;;
25583;SDS011;13463;51.526;9.928;2024-03-02T01:23:24;57.63;;;30.00;;
25583;SDS011;13463;51.526;9.928;2024-03-02T01:25:51;47.63;;;28.67;;
25583;SDS011;13463;51.526;9.928;2024-03-02T01:28:18;52.20;;;26.58;;
25583;SDS011;13463;51.526;9.928;2024-03-02T01:30:47;48.88;;;26.48;;
25583;SDS011;13463;51.526;9.928;2024-03-02T01:33:14;45.05;;;27.80;;
25583;SDS011;13463;51.526;9.928;2024-03-02T01:35:42;46.70;;;26.67;;
25583;SDS011;13463;51.526;9.928;2024-03-02T01:38:08;49.08;;;25.48;;
25583;SDS011;13463;51.526;9.928;2024-03-02T01:40:35;45.22;;;25.23;;
25583;SDS011;13463;51.526;9.928;2024-03-02T01:43:03;47.40;;;27.25;;
25583;SDS011;13463;51.526;9.928;2024-03-02T01:45:31;48.70;;;26.77;;
25583;SDS011;13463;51.526;9.928;2024-03-02T01:47:58;46.47;;;26.58;;
25583;SDS011;13463;51.526;9.928;2024-03-02T01:50:29;51.33;;;25.52;;
25583;SDS011;13463;51.526;9.928;2024-03-02T01:53:00;49.55;;;27.90;;
25583;SDS011;13463;51.526;9.928;2024-03-02T01:55:27;48.72;;;27.63;;
25583;SDS011;13463;51.526;9.928;2024-03-02T01:57:56;44.45;;;25.85;;
25583;SDS011;13463;51.526;9.928;2024-03-02T02:00:24;49.65;;;26.42;;
25583;SDS011;13463;51.526;9.928;2024-03-02T02:02:53;45.42;;;26.58;;
25583;SDS011;13463;51.526;9.928;2024-03-02T02:05:21;45.72;;;26.70;;
25583;SDS011;13463;51.526;9.928;2024-03-02T02:07:48;46.22;;;25.92;;
25583;SDS011;13463;51.526;9.928;2024-03-02T02:10:15;47.45;;;26.40;;
25583;SDS011;13463;51.526;9.928;2024-03-02T02:12:41;42.25;;;24.77;;
25583;SDS011;13463;51.526;9.928;2024-03-02T02:17:50;46.33;;;27.27;;
25583;SDS011;13463;51.526;9.928;2024-03-02T02:20:17;43.95;;;25.13;;
25583;SDS011;13463;51.526;9.928;2024-03-02T02:22:54;45.97;;;24.83;;
25583;SDS011;13463;51.526;9.928;2024-03-02T02:25:32;44.80;;;25.38;;
25583;SDS011;13463;51.526;9.928;2024-03-02T02:27:58;46.10;;;25.25;;
25583;SDS011;13463;51.526;9.928;2024-03-02T02:30:29;44.45;;;24.63;;
25583;SDS011;13463;51.526;9.928;2024-03-02T02:32:57;45.45;;;25.08;;
25583;SDS011;13463;51.526;9.928;2024-03-02T02:35:24;47.53;;;26.80;;
25583;SDS011;13463;51.526;9.928;2024-03-02T02:37:52;47.35;;;27.30;;
25583;SDS011;13463;51.526;9.928;2024-03-02T02:40:19;43.40;;;25.33;;
25583;SDS011;13463;51.526;9.928;2024-03-02T02:42:46;37.88;;;23.70;;
25583;SDS011;13463;51.526;9.928;2024-03-02T02:45:13;44.08;;;24.38;;
25583;SDS011;13463;51.526;9.928;2024-03-02T02:47:41;45.25;;;25.70;;
25583;SDS011;13463;51.526;9.928;2024-03-02T02:50:08;38.80;;;24.08;;
25583;SDS011;13463;51.526;9.928;2024-03-02T02:52:36;42.83;;;25.67;;
25583;SDS011;13463;51.526;9.928;2024-03-02T02:55:10;40.22;;;22.70;;
25583;SDS011;13463;51.526;9.928;2024-03-02T02:57:38;41.10;;;24.42;;
25583;SDS011;13463;51.526;9.928;2024-03-02T03:00:07;40.85;;;24.25;;
25583;SDS011;13463;51.526;9.928;2024-03-02T03:02:43;36.38;;;23.90;;
25583;SDS011;13463;51.526;9.928;2024-03-02T03:05:11;45.53;;;25.23;;
25583;SDS011;13463;51.526;9.928;2024-03-02T03:07:41;39.55;;;24.55;;
25583;SDS011;13463;51.526;9.928;2024-03-02T03:10:08;36.20;;;23.23;;
25583;SDS011;13463;51.526;9.928;2024-03-02T03:12:35;38.60;;;22.95;;
25583;SDS011;13463;51.526;9.928;2024-03-02T03:15:02;42.60;;;23.65;;
25583;SDS011;13463;51.526;9.928;2024-03-02T03:17:31;39.97;;;22.50;;
25583;SDS011;13463;51.526;9.928;2024-03-02T03:19:58;42.00;;;22.48;;
25583;SDS011;13463;51.526;9.928;2024-03-02T03:22:24;37.38;;;22.60;;
25583;SDS011;13463;51.526;9.928;2024-03-02T03:24:51;36.28;;;22.25;;
25583;SDS011;13463;51.526;9.928;2024-03-02T03:27:18;40.38;;;24.25;;
25583;SDS011;13463;51.526;9.928;2024-03-02T03:29:46;36.38;;;22.15;;
25583;SDS011;13463;51.526;9.928;2024-03-02T03:32:12;34.80;;;21.65;;
25583;SDS011;13463;51.526;9.928;2024-03-02T03:34:39;33.33;;;21.08;;
25583;SDS011;13463;51.526;9.928;2024-03-02T03:37:06;42.90;;;23.42;;
25583;SDS011;13463;51.526;9.928;2024-03-02T03:39:33;39.08;;;23.73;;
25583;SDS011;13463;51.526;9.928;2024-03-02T03:42:02;36.55;;;22.15;;
25583;SDS011;13463;51.526;9.928;2024-03-02T03:44:29;33.25;;;22.17;;
25583;SDS011;13463;51.526;9.928;2024-03-02T03:46:56;38.15;;;22.73;;
25583;SDS011;13463;51.526;9.928;2024-03-02T03:49:22;37.08;;;22.65;;
25583;SDS011;13463;51.526;9.928;2024-03-02T03:51:49;35.90;;;22.80;;
25583;SDS011;13463;51.526;9.928;2024-03-02T03:54:16;35.47;;;21.88;;
25583;SDS011;13463;51.526;9.928;2024-03-02T03:56:42;38.47;;;23.15;;
25583;SDS011;13463;51.526;9.928;2024-03-02T03:59:09;39.45;;;24.08;;
25583;SDS011;13463;51.526;9.928;2024-03-02T04:01:35;36.92;;;22.05;;
25583;SDS011;13463;51.526;9.928;2024-03-02T04:04:02;38.85;;;21.45;;
25583;SDS011;13463;51.526;9.928;2024-03-02T04:06:29;37.10;;;21.58;;
25583;SDS011;13463;51.526;9.928;2024-03-02T04:08:56;36.20;;;21.13;;
25583;SDS011;13463;51.526;9.928;2024-03-02T04:11:23;47.75;;;24.00;;
25583;SDS011;13463;51.526;9.928;2024-03-02T04:13:49;38.15;;;22.33;;
25583;SDS011;13463;51.526;9.928;2024-03-02T04:16:16;37.85;;;22.65;;
25583;SDS011;13463;51.526;9.928;2024-03-02T04:18:42;35.35;;;21.95;;
25583;SDS011;13463;51.526;9.928;2024-03-02T04:21:09;40.90;;;22.95;;
25583;SDS011;13463;51.526;9.928;2024-03-02T04:23:35;33.80;;;21.38;;
25583;SDS011;13463;51.526;9.928;2024-03-02T04:26:02;40.55;;;23.30;;
25583;SDS011;13463;51.526;9.928;2024-03-02T04:28:29;41.03;;;23.20;;
25583;SDS011;13463;51.526;9.928;2024-03-02T04:30:55;40.25;;;22.52;;
25583;SDS011;13463;51.526;9.928;2024-03-02T04:33:22;39.55;;;22.42;;
25583;SDS011;13463;51.526;9.928;2024-03-02T04:35:49;44.05;;;22.90;;
25583;SDS011;13463;51.526;9.928;2024-03-02T04:38:15;36.80;;;22.00;;
25583;SDS011;13463;51.526;9.928;2024-03-02T04:40:42;41.60;;;23.98;;
25583;SDS011;13463;51.526;9.928;2024-03-02T04:43:08;38.10;;;22.67;;
25583;SDS011;13463;51.526;9.928;2024-03-02T04:45:37;40.35;;;24.23;;
25583;SDS011;13463;51.526;9.928;2024-03-02T04:48:04;42.13;;;23.77;;
25583;SDS011;13463;51.526;9.928;2024-03-02T04:50:31;46.15;;;24.60;;
25583;SDS011;13463;51.526;9.928;2024-03-02T04:52:58;49.15;;;24.58;;
25583;SDS011;13463;51.526;9.928;2024-03-02T04:55:24;39.10;;;22.67;;
25583;SDS011;13463;51.526;9.928;2024-03-02T04:58:11;44.45;;;25.15;;
25583;SDS011;13463;51.526;9.928;2024-03-02T05:00:38;40.60;;;22.85;;
25583;SDS011;13463;51.526;9.928;2024-03-02T05:03:04;38.33;;;22.27;;
25583;SDS011;13463;51.526;9.928;2024-03-02T05:05:31;35.78;;;22.20;;
25583;SDS011;13463;51.526;9.928;2024-03-02T05:07:57;40.65;;;23.50;;
25583;SDS011;13463;51.526;9.928;2024-03-02T05:10:24;38.30;;;23.23;;
25583;SDS011;13463;51.526;9.928;2024-03-02T05:12:51;39.00;;;22.75;;
25583;SDS011;13463;51.526;9.928;2024-03-02T05:15:26;47.30;;;24.92;;
25583;SDS011;13463;51.526;9.928;2024-03-02T05:17:53;41.45;;;24.30;;
25583;SDS011;13463;51.526;9.928;2024-03-02T05:20:19;38.58;;;24.10;;
25583;SDS011;13463;51.526;9.928;2024-03-02T05:22:46;42.92;;;24.85;;
25583;SDS011;13463;51.526;9.928;2024-03-02T05:25:13;45.65;;;26.88;;
25583;SDS011;13463;51.526;9.928;2024-03-02T05:27:40;45.47;;;26.08;;
25583;SDS011;13463;51.526;9.928;2024-03-02T05:30:06;42.97;;;24.25;;
25583;SDS011;13463;51.526;9.928;2024-03-02T05:32:34;46.65;;;25.83;;
25583;SDS011;13463;51.526;9.928;2024-03-02T05:35:00;42.83;;;23.75;;
25583;SDS011;13463;51.526;9.928;2024-03-02T05:37:27;41.95;;;25.95;;
25583;SDS011;13463;51.526;9.928;2024-03-02T05:39:54;42.70;;;23.52;;
25583;SDS011;13463;51.526;9.928;2024-03-02T05:42:21;40.47;;;23.92;;
25583;SDS011;13463;51.526;9.928;2024-03-02T05:44:48;44.65;;;25.40;;
25583;SDS011;13463;51.526;9.928;2024-03-02T05:47:14;47.53;;;26.45;;
25583;SDS011;13463;51.526;9.928;2024-03-02T05:49:41;41.00;;;25.35;;
25583;SDS011;13463;51.526;9.928;2024-03-02T05:52:09;50.42;;;27.85;;
25583;SDS011;13463;51.526;9.928;2024-03-02T05:54:35;44.05;;;26.40;;
25583;SDS011;13463;51.526;9.928;2024-03-02T05:57:02;43.28;;;24.77;;
25583;SDS011;13463;51.526;9.928;2024-03-02T05:59:43;40.45;;;24.15;;
25583;SDS011;13463;51.526;9.928;2024-03-02T06:02:10;45.35;;;25.88;;
25583;SDS011;13463;51.526;9.928;2024-03-02T06:04:37;48.97;;;25.23;;
25583;SDS011;13463;51.526;9.928;2024-03-02T06:07:03;44.10;;;24.58;;
25583;SDS011;13463;51.526;9.928;2024-03-02T06:09:30;41.88;;;23.33;;
25583;SDS011;13463;51.526;9.928;2024-03-02T06:11:56;44.53;;;25.00;;
25583;SDS011;13463;51.526;9.928;2024-03-02T06:14:23;45.83;;;24.20;;
25583;SDS011;13463;51.526;9.928;2024-03-02T06:16:49;47.53;;;24.88;;
25583;SDS011;13463;51.526;9.928;2024-03-02T06:19:16;48.88;;;26.00;;
25583;SDS011;13463;51.526;9.928;2024-03-02T06:21:42;47.78;;;24.75;;
25583;SDS011;13463;51.526;9.928;2024-03-02T06:24:09;44.13;;;25.95;;
25583;SDS011;13463;51.526;9.928;2024-03-02T06:26:36;49.97;;;28.83;;
25583;SDS011;13463;51.526;9.928;2024-03-02T06:29:02;51.33;;;27.02;;
25583;SDS011;13463;51.526;9.928;2024-03-02T06:31:29;46.97;;;26.67;;
25583;SDS011;13463;51.526;9.928;2024-03-02T06:33:56;48.15;;;26.33;;
25583;SDS011;13463;51.526;9.928;2024-03-02T06:36:22;50.38;;;26.42;;
25583;SDS011;13463;51.526;9.928;2024-03-02T06:38:49;44.15;;;26.67;;
25583;SDS011;13463;51.526;9.928;2024-03-02T06:41:16;47.65;;;25.65;;
25583;SDS011;13463;51.526;9.928;2024-03-02T06:43:42;46.05;;;25.65;;
25583;SDS011;13463;51.526;9.928;2024-03-02T06:46:09;41.90;;;24.33;;
25583;SDS011;13463;51.526;9.928;2024-03-02T06:48:36;43.30;;;23.90;;
25583;SDS011;13463;51.526;9.928;2024-03-02T06:51:02;47.33;;;25.30;;
25583;SDS011;13463;51.526;9.928;2024-03-02T06:53:29;42.33;;;24.42;;
25583;SDS011;13463;51.526;9.928;2024-03-02T06:55:57;43.20;;;24.42;;
25583;SDS011;13463;51.526;9.928;2024-03-02T06:58:24;41.45;;;25.45;;
25583;SDS011;13463;51.526;9.928;2024-03-02T07:00:50;43.65;;;24.88;;
25583;SDS011;13463;51.526;9.928;2024-03-02T07:03:17;45.30;;;24.20;;
25583;SDS011;13463;51.526;9.928;2024-03-02T07:05:44;46.90;;;25.92;;
25583;SDS011;13463;51.526;9.928;2024-03-02T07:08:10;44.88;;;25.30;;
25583;SDS011;13463;51.526;9.928;2024-03-02T07:10:37;43.67;;;24.85;;
25583;SDS011;13463;51.526;9.928;2024-03-02T07:13:03;38.22;;;23.20;;
25583;SDS011;13463;51.526;9.928;2024-03-02T07:15:30;40.55;;;25.23;;
25583;SDS011;13463;51.526;9.928;2024-03-02T07:18:13;45.05;;;24.98;;
25583;SDS011;13463;51.526;9.928;2024-03-02T07:20:40;45.60;;;25.48;;
25583;SDS011;13463;51.526;9.928;2024-03-02T07:23:07;42.35;;;23.38;;
25583;SDS011;13463;51.526;9.928;2024-03-02T07:25:33;38.67;;;23.67;;
25583;SDS011;13463;51.526;9.928;2024-03-02T07:28:03;39.30;;;22.53;;
25583;SDS011;13463;51.526;9.928;2024-03-02T07:30:30;37.13;;;22.92;;
25583;SDS011;13463;51.526;9.928;2024-03-02T07:32:59;41.35;;;22.85;;
25583;SDS011;13463;51.526;9.928;2024-03-02T07:35:26;41.05;;;23.58;;
25583;SDS011;13463;51.526;9.928;2024-03-02T07:37:58;41.10;;;23.45;;
25583;SDS011;13463;51.526;9.928;2024-03-02T07:40:24;41.13;;;23.83;;
25583;SDS011;13463;51.526;9.928;2024-03-02T07:42:52;49.05;;;26.17;;
25583;SDS011;13463;51.526;9.928;2024-03-02T07:45:18;40.78;;;24.20;;
25583;SDS011;13463;51.526;9.928;2024-03-02T07:47:45;46.30;;;26.63;;
25583;SDS011;13463;51.526;9.928;2024-03-02T07:50:12;46.70;;;26.83;;
25583;SDS011;13463;51.526;9.928;2024-03-02T07:52:39;45.50;;;25.75;;
25583;SDS011;13463;51.526;9.928;2024-03-02T07:55:06;48.75;;;27.65;;
25583;SDS011;13463;51.526;9.928;2024-03-02T07:57:33;46.25;;;25.50;;
25583;SDS011;13463;51.526;9.928;2024-03-02T07:59:59;54.35;;;26.05;;
25583;SDS011;13463;51.526;9.928;2024-03-02T08:02:26;45.30;;;25.90;;
25583;SDS011;13463;51.526;9.928;2024-03-02T08:04:53;49.95;;;26.20;;
25583;SDS011;13463;51.526;9.928;2024-03-02T08:07:19;49.83;;;24.73;;
25583;SDS011;13463;51.526;9.928;2024-03-02T08:09:46;44.63;;;24.25;;
25583;SDS011;13463;51.526;9.928;2024-03-02T08:12:13;50.58;;;24.73;;
25583;SDS011;13463;51.526;9.928;2024-03-02T08:14:39;39.22;;;23.63;;
25583;SDS011;13463;51.526;9.928;2024-03-02T08:17:06;37.95;;;22.95;;
25583;SDS011;13463;51.526;9.928;2024-03-02T08:19:36;39.00;;;22.45;;
25583;SDS011;13463;51.526;9.928;2024-03-02T08:22:03;36.92;;;21.77;;
25583;SDS011;13463;51.526;9.928;2024-03-02T08:24:30;42.25;;;24.40;;
25583;SDS011;13463;51.526;9.928;2024-03-02T08:26:58;36.92;;;21.90;;
25583;SDS011;13463;51.526;9.928;2024-03-02T08:29:25;40.88;;;22.80;;
25583;SDS011;13463;51.526;9.928;2024-03-02T08:31:52;35.33;;;20.63;;
25583;SDS011;13463;51.526;9.928;2024-03-02T08:34:19;43.10;;;22.77;;
25583;SDS011;13463;51.526;9.928;2024-03-02T08:36:46;35.05;;;21.75;;
25583;SDS011;13463;51.526;9.928;2024-03-02T08:39:12;33.30;;;20.67;;
25583;SDS011;13463;51.526;9.928;2024-03-02T08:41:42;34.40;;;20.17;;
25583;SDS011;13463;51.526;9.928;2024-03-02T08:44:10;31.08;;;19.17;;
25583;SDS011;13463;51.526;9.928;2024-03-02T08:46:39;30.48;;;19.33;;
25583;SDS011;13463;51.526;9.928;2024-03-02T08:49:06;32.47;;;20.48;;
25583;SDS011;13463;51.526;9.928;2024-03-02T08:51:33;34.97;;;21.85;;
25583;SDS011;13463;51.526;9.928;2024-03-02T08:54:00;31.27;;;19.30;;
25583;SDS011;13463;51.526;9.928;2024-03-02T08:56:26;33.20;;;20.02;;
25583;SDS011;13463;51.526;9.928;2024-03-02T08:58:53;33.38;;;19.95;;
25583;SDS011;13463;51.526;9.928;2024-03-02T09:01:20;36.95;;;19.27;;
25583;SDS011;13463;51.526;9.928;2024-03-02T09:03:46;32.60;;;19.52;;
25583;SDS011;13463;51.526;9.928;2024-03-02T09:06:15;30.27;;;19.27;;
25583;SDS011;13463;51.526;9.928;2024-03-02T09:08:47;37.90;;;20.05;;
25583;SDS011;13463;51.526;9.928;2024-03-02T09:11:15;32.92;;;19.48;;
25583;SDS011;13463;51.526;9.928;2024-03-02T09:13:42;29.08;;;18.13;;
25583;SDS011;13463;51.526;9.928;2024-03-02T09:16:09;33.67;;;20.30;;
25583;SDS011;13463;51.526;9.928;2024-03-02T09:18:37;26.92;;;16.98;;
25583;SDS011;13463;51.526;9.928;2024-03-02T09:21:04;26.98;;;17.83;;
25583;SDS011;13463;51.526;9.928;2024-03-02T09:23:31;26.63;;;18.45;;
25583;SDS011;13463;51.526;9.928;2024-03-02T09:25:57;28.33;;;17.75;;
25583;SDS011;13463;51.526;9.928;2024-03-02T09:28:24;29.27;;;19.00;;
25583;SDS011;13463;51.526;9.928;2024-03-02T09:30:51;29.65;;;17.65;;
25583;SDS011;13463;51.526;9.928;2024-03-02T09:33:17;27.92;;;16.20;;
25583;SDS011;13463;51.526;9.928;2024-03-02T09:35:44;30.38;;;17.67;;
25583;SDS011;13463;51.526;9.928;2024-03-02T09:38:11;25.48;;;16.85;;
25583;SDS011;13463;51.526;9.928;2024-03-02T09:40:38;27.52;;;16.38;;
25583;SDS011;13463;51.526;9.928;2024-03-02T09:43:04;26.88;;;17.33;;
25583;SDS011;13463;51.526;9.928;2024-03-02T09:45:31;29.05;;;16.88;;
25583;SDS011;13463;51.526;9.928;2024-03-02T09:47:58;27.70;;;15.85;;
25583;SDS011;13463;51.526;9.928;2024-03-02T09:50:25;29.02;;;16.73;;
25583;SDS011;13463;51.526;9.928;2024-03-02T09:52:52;28.35;;;17.48;;
25583;SDS011;13463;51.526;9.928;2024-03-02T09:55:19;26.13;;;15.90;;
25583;SDS011;13463;51.526;9.928;2024-03-02T09:57:46;25.02;;;15.10;;
25583;SDS011;13463;51.526;9.928;2024-03-02T10:00:15;28.08;;;15.57;;
25583;SDS011;13463;51.526;9.928;2024-03-02T10:02:42;23.27;;;15.60;;
25583;SDS011;13463;51.526;9.928;2024-03-02T10:05:09;24.33;;;15.85;;
25583;SDS011;13463;51.526;9.928;2024-03-02T10:07:36;25.63;;;14.30;;
25583;SDS011;13463;51.526;9.928;2024-03-02T10:10:12;20.70;;;14.27;;
25583;SDS011;13463;51.526;9.928;2024-03-02T10:12:40;20.85;;;13.68;;
25583;SDS011;13463;51.526;9.928;2024-03-02T10:15:06;17.83;;;12.93;;
25583;SDS011;13463;51.526;9.928;2024-03-02T10:17:34;18.15;;;12.20;;
25583;SDS011;13463;51.526;9.928;2024-03-02T10:20:20;16.70;;;12.05;;
25583;SDS011;13463;51.526;9.928;2024-03-02T10:22:47;19.42;;;12.30;;
25583;SDS011;13463;51.526;9.928;2024-03-02T10:25:30;20.65;;;12.95;;
25583;SDS011;13463;51.526;9.928;2024-03-02T10:28:03;19.53;;;12.73;;
25583;SDS011;13463;51.526;9.928;2024-03-02T10:30:35;16.70;;;10.77;;
25583;SDS011;13463;51.526;9.928;2024-03-02T10:33:02;16.95;;;11.75;;
25583;SDS011;13463;51.526;9.928;2024-03-02T10:35:30;17.67;;;10.75;;
25583;SDS011;13463;51.526;9.928;2024-03-02T10:38:03;16.33;;;10.48;;
25583;SDS011;13463;51.526;9.928;2024-03-02T10:40:31;16.45;;;11.70;;
25583;SDS011;13463;51.526;9.928;2024-03-02T10:42:58;15.70;;;11.60;;
25583;SDS011;13463;51.526;9.928;2024-03-02T10:45:28;17.55;;;11.65;;
25583;SDS011;13463;51.526;9.928;2024-03-02T10:47:55;16.05;;;10.75;;
25583;SDS011;13463;51.526;9.928;2024-03-02T10:50:22;17.25;;;11.23;;
25583;SDS011;13463;51.526;9.928;2024-03-02T10:52:50;15.32;;;10.98;;
25583;SDS011;13463;51.526;9.928;2024-03-02T10:55:17;16.85;;;11.57;;
25583;SDS011;13463;51.526;9.928;2024-03-02T10:57:52;16.25;;;10.55;;
25583;SDS011;13463;51.526;9.928;2024-03-02T11:00:20;15.52;;;10.93;;
25583;SDS011;13463;51.526;9.928;2024-03-02T11:02:56;16.60;;;10.98;;
25583;SDS011;13463;51.526;9.928;2024-03-02T11:05:29;15.10;;;10.30;;
25583;SDS011;13463;51.526;9.928;2024-03-02T11:08:02;15.02;;;10.25;;
25583;SDS011;13463;51.526;9.928;2024-03-02T11:10:50;15.38;;;11.00;;
25583;SDS011;13463;51.526;9.928;2024-03-02T11:13:21;15.40;;;9.13;;
25583;SDS011;13463;51.526;9.928;2024-03-02T11:15:51;12.45;;;8.73;;
25583;SDS011;13463;51.526;9.928;2024-03-02T11:18:21;15.10;;;9.27;;
25583;SDS011;13463;51.526;9.928;2024-03-02T11:20:48;11.73;;;8.25;;
25583;SDS011;13463;51.526;9.928;2024-03-02T11:23:15;12.82;;;8.98;;
25583;SDS011;13463;51.526;9.928;2024-03-02T11:25:42;17.85;;;10.32;;
25583;SDS011;13463;51.526;9.928;2024-03-02T11:28:08;13.57;;;9.10;;
25583;SDS011;13463;51.526;9.928;2024-03-02T11:33:05;12.25;;;9.15;;
25583;SDS011;13463;51.526;9.928;2024-03-02T11:35:42;15.23;;;10.38;;
25583;SDS011;13463;51.526;9.928;2024-03-02T11:38:09;14.65;;;9.95;;
25583;SDS011;13463;51.526;9.928;2024-03-02T11:40:36;14.95;;;9.45;;
25583;SDS011;13463;51.526;9.928;2024-03-02T11:43:06;14.65;;;8.75;;
25583;SDS011;13463;51.526;9.928;2024-03-02T11:45:35;11.05;;;8.43;;
25583;SDS011;13463;51.526;9.928;2024-03-02T11:48:06;11.88;;;8.90;;
25583;SDS011;13463;51.526;9.928;2024-03-02T11:53:09;14.18;;;9.70;;
25583;SDS011;13463;51.526;9.928;2024-03-02T11:55:40;13.30;;;8.82;;
25583;SDS011;13463;51.526;9.928;2024-03-02T11:58:07;10.80;;;7.88;;
25583;SDS011;13463;51.526;9.928;2024-03-02T12:00:34;15.27;;;9.23;;
25583;SDS011;13463;51.526;9.928;2024-03-02T12:03:02;14.73;;;9.93;;
25583;SDS011;13463;51.526;9.928;2024-03-02T12:05:31;12.75;;;9.27;;
25583;SDS011;13463;51.526;9.928;2024-03-02T12:08:02;14.00;;;8.93;;
25583;SDS011;13463;51.526;9.928;2024-03-02T12:10:30;11.57;;;8.27;;
25583;SDS011;13463;51.526;9.928;2024-03-02T12:13:01;13.02;;;9.20;;
25583;SDS011;13463;51.526;9.928;2024-03-02T12:15:30;12.38;;;9.07;;
25583;SDS011;13463;51.526;9.928;2024-03-02T12:17:59;14.65;;;8.95;;
25583;SDS011;13463;51.526;9.928;2024-03-02T12:20:27;11.90;;;8.77;;
25583;SDS011;13463;51.526;9.928;2024-03-02T12:22:57;10.77;;;7.75;;
25583;SDS011;13463;51.526;9.928;2024-03-02T12:25:26;13.35;;;8.07;;
25583;SDS011;13463;51.526;9.928;2024-03-02T12:27:58;10.32;;;7.93;;
25583;SDS011;13463;51.526;9.928;2024-03-02T12:30:29;15.93;;;7.82;;
25583;SDS011;13463;51.526;9.928;2024-03-02T12:32:56;11.05;;;7.90;;
25583;SDS011;13463;51.526;9.928;2024-03-02T12:35:24;11.02;;;7.25;;
25583;SDS011;13463;51.526;9.928;2024-03-02T12:37:51;10.98;;;6.22;;
25583;SDS011;13463;51.526;9.928;2024-03-02T12:40:19;11.40;;;7.13;;
25583;SDS011;13463;51.526;9.928;2024-03-02T12:42:46;9.88;;;6.82;;
25583;SDS011;13463;51.526;9.928;2024-03-02T12:45:13;8.52;;;6.07;;
25583;SDS011;13463;51.526;9.928;2024-03-02T12:47:40;11.55;;;7.20;;
25583;SDS011;13463;51.526;9.928;2024-03-02T12:50:08;10.50;;;6.60;;
25583;SDS011;13463;51.526;9.928;2024-03-02T12:52:36;8.13;;;6.63;;
25583;SDS011;13463;51.526;9.928;2024-03-02T12:55:05;9.48;;;6.45;;
25583;SDS011;13463;51.526;9.928;2024-03-02T12:57:33;8.77;;;6.13;;
25583;SDS011;13463;51.526;9.928;2024-03-02T13:00:04;5.32;;;4.55;;
25583;SDS011;13463;51.526;9.928;2024-03-02T13:02:40;8.65;;;5.57;;
25583;SDS011;13463;51.526;9.928;2024-03-02T13:05:07;8.07;;;5.55;;
25583;SDS011;13463;51.526;9.928;2024-03-02T13:07:38;9.80;;;5.20;;
25583;SDS011;13463;51.526;9.928;2024-03-02T13:10:05;9.80;;;4.18;;
25583;SDS011;13463;51.526;9.928;2024-03-02T13:12:35;6.00;;;4.05;;
25583;SDS011;13463;51.526;9.928;2024-03-02T13:15:02;5.95;;;3.53;;
25583;SDS011;13463;51.526;9.928;2024-03-02T13:17:30;6.05;;;3.85;;
25583;SDS011;13463;51.526;9.928;2024-03-02T13:20:03;9.23;;;5.10;;
25583;SDS011;13463;51.526;9.928;2024-03-02T13:22:34;8.07;;;4.93;;
25583;SDS011;13463;51.526;9.928;2024-03-02T13:25:01;9.13;;;4.40;;
25583;SDS011;13463;51.526;9.928;2024-03-02T13:27:31;7.00;;;3.33;;
25583;SDS011;13463;51.526;9.928;2024-03-02T13:29:58;5.18;;;3.22;;
25583;SDS011;13463;51.526;9.928;2024-03-02T13:32:25;5.10;;;2.60;;
25583;SDS011;13463;51.526;9.928;2024-03-02T13:34:52;9.07;;;3.50;;
25583;SDS011;13463;51.526;9.928;2024-03-02T13:37:19;6.50;;;3.20;;
25583;SDS011;13463;51.526;9.928;2024-03-02T13:39:50;6.30;;;2.83;;
25583;SDS011;13463;51.526;9.928;2024-03-02T13:42:16;5.65;;;3.03;;
25583;SDS011;13463;51.526;9.928;2024-03-02T13:44:44;5.13;;;2.45;;
25583;SDS011;13463;51.526;9.928;2024-03-02T13:47:16;4.40;;;2.40;;
25583;SDS011;13463;51.526;9.928;2024-03-02T13:49:43;3.40;;;2.13;;
25583;SDS011;13463;51.526;9.928;2024-03-02T13:52:13;5.30;;;2.58;;
25583;SDS011;13463;51.526;9.928;2024-03-02T13:54:41;3.50;;;1.92;;
25583;SDS011;13463;51.526;9.928;2024-03-02T13:57:09;3.13;;;2.10;;
25583;SDS011;13463;51.526;9.928;2024-03-02T13:59:37;3.50;;;1.60;;
25583;SDS011;13463;51.526;9.928;2024-03-02T14:02:04;2.08;;;1.38;;
25583;SDS011;13463;51.526;9.928;2024-03-02T14:04:32;3.00;;;1.75;;
25583;SDS011;13463;51.526;9.928;2024-03-02T14:07:02;3.05;;;1.60;;
25583;SDS011;13463;51.526;9.928;2024-03-02T14:09:29;7.40;;;2.05;;
25583;SDS011;13463;51.526;9.928;2024-03-02T14:11:56;3.30;;;2.10;;
25583;SDS011;13463;51.526;9.928;2024-03-02T14:14:23;3.83;;;2.20;;
25583;SDS011;13463;51.526;9.928;2024-03-02T14:16:50;4.00;;;2.70;;
25583;SDS011;13463;51.526;9.928;2024-03-02T14:19:17;3.17;;;1.50;;
25583;SDS011;13463;51.526;9.928;2024-03-02T14:21:43;2.78;;;1.83;;
25583;SDS011;13463;51.526;9.928;2024-03-02T14:24:10;3.35;;;2.10;;
25583;SDS011;13463;51.526;9.928;2024-03-02T14:26:36;2.92;;;1.80;;
25583;SDS011;13463;51.526;9.928;2024-03-02T14:29:03;2.70;;;1.67;;
25583;SDS011;13463;51.526;9.928;2024-03-02T14:31:31;6.80;;;1.88;;
25583;SDS011;13463;51.526;9.928;2024-03-02T14:33:58;3.03;;;1.70;;
25583;SDS011;13463;51.526;9.928;2024-03-02T14:36:26;3.55;;;1.65;;
25583;SDS011;13463;51.526;9.928;2024-03-02T14:38:54;4.55;;;1.80;;
25583;SDS011;13463;51.526;9.928;2024-03-02T14:41:22;4.03;;;2.08;;